Time;durP1;ratioP1;P1;durP2;ratioP2;P2;SDS_P1;SDS_P2;PMS_P1;PMS_P2;Temp;Humidity;BMP_temperature;BMP_pressure;BME280_temperature;BME280_humidity;BME280_pressure;Samples;Min_cycle;Max_cycle;Signal;HPM_P1;HPM_P2
2022/04/11 00:02:00;;;;;;;6.60;4.38;;;7.90;62.50;;;;;;5133924;28;20044;-66
2022/04/11 00:04:29;;;;;;;8.30;4.25;;;8.00;62.40;;;;;;5133931;28;20035;-66
2022/04/11 00:06:55;;;;;;;6.35;4.10;;;7.90;62.80;;;;;;5133885;28;20095;-66
2022/04/11 00:09:21;;;;;;;7.95;4.22;;;7.80;63.70;;;;;;5132684;28;20036;-66
2022/04/11 00:11:47;;;;;;;7.38;4.50;;;7.60;64.10;;;;;;5133796;28;20052;-66
2022/04/11 00:14:13;;;;;;;7.25;4.00;;;7.50;65.20;;;;;;5133783;28;20020;-66
2022/04/11 00:16:39;;;;;;;6.28;4.25;;;7.60;65.10;;;;;;5133789;28;20019;-67
2022/04/11 00:19:05;;;;;;;6.10;3.72;;;7.60;65.00;;;;;;5133856;28;20031;-66
2022/04/11 00:21:31;;;;;;;6.97;4.10;;;7.60;64.60;;;;;;5132868;28;20059;-66
2022/04/11 00:23:57;;;;;;;8.63;4.55;;;7.60;65.70;;;;;;5133713;28;20026;-66
2022/04/11 00:26:23;;;;;;;10.55;4.50;;;7.50;65.60;;;;;;5133786;28;20050;-66
2022/04/11 00:28:49;;;;;;;6.97;4.07;;;7.50;65.70;;;;;;5133448;28;20023;-66
2022/04/11 00:31:14;;;;;;;5.93;3.90;;;7.40;66.00;;;;;;5133732;28;20035;-66
2022/04/11 00:33:40;;;;;;;8.75;4.53;;;7.40;66.00;;;;;;5133555;28;20035;-66
2022/04/11 00:36:06;;;;;;;5.55;3.92;;;7.50;65.90;;;;;;5133642;28;20109;-66
2022/04/11 00:38:31;;;;;;;6.30;4.10;;;7.50;65.50;;;;;;5133363;28;20034;-67
2022/04/11 00:40:57;;;;;;;5.25;3.65;;;7.50;65.60;;;;;;5133662;28;20028;-66
2022/04/11 00:43:33;;;;;;;5.60;4.05;;;7.50;65.50;;;;;;5133486;28;20039;-66
2022/04/11 00:45:59;;;;;;;8.07;4.78;;;7.60;65.60;;;;;;5133490;28;20015;-66
2022/04/11 00:48:24;;;;;;;7.28;4.47;;;7.70;65.50;;;;;;5133393;28;20030;-67
2022/04/11 00:50:53;;;;;;;7.70;4.60;;;7.60;65.80;;;;;;5133383;28;20032;-66
2022/04/11 00:53:19;;;;;;;7.30;4.00;;;7.50;65.80;;;;;;5133431;28;20020;-66
2022/04/11 00:55:45;;;;;;;9.70;4.53;;;7.50;66.00;;;;;;5132437;28;20083;-66
2022/04/11 00:58:12;;;;;;;7.28;4.05;;;7.40;66.30;;;;;;5133404;28;20059;-66
2022/04/11 01:00:39;;;;;;;9.43;4.50;;;7.40;66.70;;;;;;5133387;28;20426;-66
2022/04/11 01:03:04;;;;;;;5.35;3.75;;;7.40;66.80;;;;;;5133357;28;20024;-66
2022/04/11 01:05:30;;;;;;;6.38;4.35;;;7.40;66.90;;;;;;5132416;28;20066;-66
2022/04/11 01:08:05;;;;;;;6.85;3.90;;;7.40;66.90;;;;;;5133187;28;20080;-66
2022/04/11 01:10:31;;;;;;;6.22;3.70;;;7.40;66.90;;;;;;5133373;28;20023;-66
2022/04/11 01:12:57;;;;;;;8.98;3.95;;;7.40;67.30;;;;;;5136972;28;20020;-66
2022/04/11 01:15:23;;;;;;;7.28;4.13;;;7.20;67.70;;;;;;5136023;28;20380;-66
2022/04/11 01:17:49;;;;;;;6.45;3.78;;;7.30;67.60;;;;;;5136975;28;20032;-66
2022/04/11 01:20:18;;;;;;;6.65;3.97;;;7.30;67.50;;;;;;5136894;28;20039;-65
2022/04/11 01:22:43;;;;;;;9.60;4.28;;;7.20;67.70;;;;;;5137021;28;20023;-66
2022/04/11 01:25:18;;;;;;;8.40;4.55;;;7.20;68.30;;;;;;5118760;28;20027;-66
2022/04/11 01:27:44;;;;;;;9.25;4.25;;;7.10;68.30;;;;;;5136606;28;20023;-66
2022/04/11 01:30:12;;;;;;;7.38;4.00;;;7.10;68.40;;;;;;5136692;28;20020;-66
2022/04/11 01:32:38;;;;;;;6.95;4.75;;;7.10;68.50;;;;;;5135595;28;20049;-66
2022/04/11 01:35:04;;;;;;;8.73;4.35;;;7.00;68.50;;;;;;5136631;28;20042;-66
2022/04/11 01:37:30;;;;;;;7.43;4.22;;;7.00;69.20;;;;;;5136650;28;20047;-66
2022/04/11 01:39:56;;;;;;;6.70;4.20;;;7.00;68.90;;;;;;5136378;28;20051;-66
2022/04/11 01:42:22;;;;;;;7.03;4.60;;;7.20;68.50;;;;;;5136445;28;20028;-66
2022/04/11 01:44:47;;;;;;;8.57;4.93;;;7.40;67.90;;;;;;5136404;28;20051;-66
2022/04/11 01:47:13;;;;;;;6.72;4.63;;;7.50;67.50;;;;;;5136394;28;20036;-66
2022/04/11 01:49:39;;;;;;;6.85;4.63;;;7.50;67.30;;;;;;5136248;28;20030;-66
2022/04/11 01:52:05;;;;;;;8.70;4.63;;;7.50;67.50;;;;;;5135188;28;20035;-66
2022/04/11 01:54:31;;;;;;;7.57;4.90;;;7.40;67.50;;;;;;5136257;28;20111;-66
2022/04/11 01:56:56;;;;;;;9.35;4.68;;;7.40;67.40;;;;;;5136339;28;20023;-66
2022/04/11 01:59:22;;;;;;;7.95;5.28;;;7.50;67.10;;;;;;5136211;28;20038;-66
2022/04/11 02:01:48;;;;;;;8.05;5.18;;;7.60;66.90;;;;;;5136137;28;20027;-66
2022/04/11 02:04:13;;;;;;;8.30;5.10;;;7.70;66.50;;;;;;5135244;28;20038;-66
2022/04/11 02:06:39;;;;;;;8.30;5.13;;;7.70;66.20;;;;;;5134974;28;20028;-66
2022/04/11 02:09:05;;;;;;;7.28;4.90;;;7.80;65.90;;;;;;5135910;28;20079;-66
2022/04/11 02:11:30;;;;;;;6.43;4.60;;;7.80;65.80;;;;;;5135958;28;20415;-66
2022/04/11 02:13:56;;;;;;;7.07;5.20;;;7.80;65.50;;;;;;5135858;28;20062;-66
2022/04/11 02:16:23;;;;;;;9.07;5.43;;;7.80;65.40;;;;;;5135809;28;20020;-66
2022/04/11 02:18:49;;;;;;;8.30;5.50;;;7.80;65.00;;;;;;5135787;28;20020;-66
2022/04/11 02:21:15;;;;;;;8.48;5.10;;;7.80;64.80;;;;;;5135649;28;20112;-66
2022/04/11 02:23:40;;;;;;;13.10;5.95;;;7.90;65.60;;;;;;5135428;28;20064;-66
2022/04/11 02:26:06;;;;;;;11.35;5.43;;;7.80;64.80;;;;;;5135660;28;20029;-66
2022/04/11 02:28:32;;;;;;;7.50;5.10;;;7.80;64.90;;;;;;5135456;28;20047;-66
2022/04/11 02:30:58;;;;;;;7.85;5.55;;;7.80;65.30;;;;;;5135556;28;20091;-66
2022/04/11 02:33:23;;;;;;;9.55;4.95;;;7.60;65.60;;;;;;5135491;28;20031;-66
2022/04/11 02:35:49;;;;;;;8.45;5.03;;;7.40;66.20;;;;;;5134461;28;20031;-66
2022/04/11 02:38:15;;;;;;;7.13;5.00;;;7.30;66.70;;;;;;5134418;28;20035;-66
2022/04/11 02:40:40;;;;;;;8.02;4.93;;;7.20;66.90;;;;;;5135136;28;20055;-66
2022/04/11 02:43:06;;;;;;;9.13;5.38;;;7.30;66.80;;;;;;5135273;28;20079;-66
2022/04/11 02:45:32;;;;;;;10.13;5.70;;;7.30;67.60;;;;;;5135308;28;20430;-66
2022/04/11 02:47:57;;;;;;;8.18;5.30;;;7.20;67.10;;;;;;5135129;28;20052;-66
2022/04/11 02:50:23;;;;;;;9.48;5.60;;;7.00;67.70;;;;;;5135130;28;20075;-65
2022/04/11 02:52:49;;;;;;;8.85;5.32;;;6.90;68.60;;;;;;5135078;28;20027;-66
2022/04/11 02:55:14;;;;;;;8.32;6.07;;;6.90;69.20;;;;;;5135051;28;20034;-66
2022/04/11 02:57:40;;;;;;;10.73;5.72;;;7.00;68.60;;;;;;5135003;28;20020;-66
2022/04/11 03:00:09;;;;;;;9.27;5.90;;;7.10;68.00;;;;;;5134988;28;20024;-66
2022/04/11 03:02:34;;;;;;;12.02;6.22;;;7.20;67.50;;;;;;5134845;28;20035;-66
2022/04/11 03:05:00;;;;;;;10.27;5.80;;;7.20;67.30;;;;;;5116811;28;20047;-66
2022/04/11 03:07:27;;;;;;;11.98;6.13;;;7.30;67.10;;;;;;5134851;28;20023;-66
2022/04/11 03:09:54;;;;;;;10.57;5.90;;;7.30;67.10;;;;;;5134766;28;20165;-66
2022/04/11 03:12:20;;;;;;;9.85;6.40;;;7.20;67.20;;;;;;5134754;28;20023;-66
2022/04/11 03:14:48;;;;;;;8.75;6.18;;;7.00;67.30;;;;;;5133618;28;20020;-66
2022/04/11 03:17:13;;;;;;;9.57;5.95;;;7.00;68.50;;;;;;5134700;28;20026;-66
2022/04/11 03:19:39;;;;;;;13.13;6.50;;;6.90;67.90;;;;;;5134606;28;20036;-66
2022/04/11 03:22:05;;;;;;;7.72;5.82;;;7.00;67.90;;;;;;5134617;28;20041;-66
2022/04/11 03:24:30;;;;;;;9.13;5.88;;;6.90;68.00;;;;;;5134481;28;20036;-66
2022/04/11 03:26:56;;;;;;;10.60;6.10;;;6.80;68.20;;;;;;5134537;28;20032;-66
2022/04/11 03:29:21;;;;;;;9.15;6.03;;;6.90;68.10;;;;;;5134224;28;20035;-66
2022/04/11 03:31:48;;;;;;;9.32;5.72;;;6.80;68.30;;;;;;5134354;28;20020;-66
2022/04/11 03:34:14;;;;;;;9.90;5.70;;;6.70;68.30;;;;;;5133687;28;20027;-66
2022/04/11 03:36:39;;;;;;;9.45;5.78;;;6.50;68.40;;;;;;5134315;28;20016;-66
2022/04/11 03:39:05;;;;;;;8.98;5.90;;;6.50;68.40;;;;;;5133959;28;20103;-66
2022/04/11 03:41:31;;;;;;;11.93;6.45;;;6.50;68.20;;;;;;5134208;28;20028;-66
2022/04/11 03:43:56;;;;;;;10.07;6.55;;;6.50;68.60;;;;;;5133101;28;20039;-66
2022/04/11 03:46:22;;;;;;;10.48;6.45;;;6.50;68.60;;;;;;5134141;28;20031;-66
2022/04/11 03:48:47;;;;;;;9.55;6.18;;;6.40;68.90;;;;;;5133051;28;20032;-66
2022/04/11 03:51:13;;;;;;;10.02;6.22;;;6.30;69.00;;;;;;5134053;28;20388;-66
2022/04/11 03:53:39;;;;;;;9.38;6.43;;;6.30;69.10;;;;;;5134007;28;20057;-66
2022/04/11 03:56:05;;;;;;;9.45;5.57;;;6.40;68.90;;;;;;5132880;28;20095;-66
2022/04/11 03:58:31;;;;;;;11.38;6.10;;;6.40;68.70;;;;;;5133991;28;20024;-66
2022/04/11 04:00:56;;;;;;;12.80;6.50;;;6.40;68.50;;;;;;5134075;28;20024;-66
2022/04/11 04:03:22;;;;;;;10.77;6.63;;;6.40;68.70;;;;;;5132833;28;20038;-66
2022/04/11 04:05:48;;;;;;;11.02;6.50;;;6.30;68.60;;;;;;5133933;28;20039;-66
2022/04/11 04:08:17;;;;;;;11.20;6.95;;;6.30;68.60;;;;;;5132845;28;20031;-66
2022/04/11 04:10:43;;;;;;;12.50;6.55;;;6.30;68.60;;;;;;5133844;28;20015;-66
2022/04/11 04:13:08;;;;;;;11.32;6.88;;;6.30;68.60;;;;;;5133779;28;20023;-66
2022/04/11 04:15:34;;;;;;;12.02;6.57;;;6.20;69.10;;;;;;5133899;28;20543;-66
2022/04/11 04:18:00;;;;;;;11.70;6.80;;;6.20;69.10;;;;;;5133754;28;20027;-66
2022/04/11 04:20:26;;;;;;;10.43;6.60;;;6.20;68.90;;;;;;5133710;28;20043;-66
2022/04/11 04:22:55;;;;;;;11.15;6.95;;;6.20;68.80;;;;;;5132781;28;20028;-66
2022/04/11 04:25:21;;;;;;;11.82;6.30;;;6.10;68.80;;;;;;5133813;28;20027;-66
2022/04/11 04:27:47;;;;;;;14.40;7.70;;;6.10;69.00;;;;;;5133550;28;20039;-66
2022/04/11 04:30:13;;;;;;;9.98;6.90;;;6.10;68.50;;;;;;5133688;28;20028;-66
2022/04/11 04:32:39;;;;;;;12.02;8.48;;;6.20;68.00;;;;;;5133721;28;20046;-66
2022/04/11 04:35:06;;;;;;;11.57;7.40;;;6.20;67.70;;;;;;5133576;28;20030;-66
2022/04/11 04:37:31;;;;;;;12.25;6.45;;;6.20;67.60;;;;;;5133534;28;20083;-66
2022/04/11 04:39:57;;;;;;;10.50;6.60;;;6.20;67.90;;;;;;5132439;28;20073;-66
2022/04/11 04:42:27;;;;;;;13.23;7.30;;;6.20;68.00;;;;;;5132577;28;20055;-66
2022/04/11 04:44:54;;;;;;;10.68;7.25;;;6.20;68.50;;;;;;5134224;28;20034;-66
2022/04/11 04:47:20;;;;;;;12.35;7.50;;;6.10;68.50;;;;;;5137618;28;20020;-66
2022/04/11 04:49:46;;;;;;;10.45;6.88;;;6.10;68.70;;;;;;5137392;28;20028;-66
2022/04/11 04:52:12;;;;;;;11.85;7.18;;;6.00;69.00;;;;;;5137487;28;20067;-66
2022/04/11 04:54:38;;;;;;;12.13;7.13;;;5.80;69.40;;;;;;5137424;28;20011;-66
2022/04/11 04:57:05;;;;;;;14.43;6.85;;;5.90;70.30;;;;;;5137507;28;20112;-66
2022/04/11 04:59:30;;;;;;;15.25;7.10;;;5.90;69.40;;;;;;5136276;28;20034;-66
2022/04/11 05:01:56;;;;;;;12.95;7.05;;;5.80;69.30;;;;;;5137236;28;20047;-66
2022/04/11 05:04:22;;;;;;;11.88;6.95;;;5.70;69.70;;;;;;5137233;28;20023;-66
2022/04/11 05:06:48;;;;;;;11.60;7.07;;;5.60;70.00;;;;;;5137206;28;20115;-66
2022/04/11 05:09:13;;;;;;;8.90;6.25;;;5.60;70.10;;;;;;5137049;28;20032;-66
2022/04/11 05:11:39;;;;;;;11.10;6.85;;;5.60;70.10;;;;;;5137195;28;20066;-66
2022/04/11 05:14:05;;;;;;;9.82;6.95;;;5.60;70.30;;;;;;5136100;28;20031;-66
2022/04/11 05:16:31;;;;;;;11.48;6.95;;;5.60;70.70;;;;;;5137000;28;20049;-66
2022/04/11 05:18:56;;;;;;;11.30;7.72;;;5.60;70.40;;;;;;5136916;28;20019;-66
2022/04/11 05:21:22;;;;;;;14.00;6.90;;;5.70;69.70;;;;;;5136834;28;20379;-66
2022/04/11 05:23:48;;;;;;;10.82;6.32;;;5.80;69.80;;;;;;5136895;28;20032;-66
2022/04/11 05:26:13;;;;;;;11.30;6.68;;;5.80;69.80;;;;;;5136833;28;20094;-66
2022/04/11 05:28:39;;;;;;;11.57;6.70;;;5.80;69.90;;;;;;5136591;28;20031;-66
2022/04/11 05:31:04;;;;;;;15.25;7.05;;;5.70;70.00;;;;;;5136710;28;20043;-66
2022/04/11 05:33:30;;;;;;;12.15;7.03;;;5.80;69.80;;;;;;5136746;28;20032;-66
2022/04/11 05:35:56;;;;;;;11.38;7.30;;;5.90;69.90;;;;;;5136619;28;20027;-66
2022/04/11 05:38:22;;;;;;;11.40;7.28;;;5.80;70.00;;;;;;5136621;28;20020;-66
2022/04/11 05:40:48;;;;;;;14.10;6.10;;;5.80;71.30;;;;;;5136412;27;20074;-66
2022/04/11 05:43:14;;;;;;;13.98;7.13;;;5.70;70.50;;;;;;5136501;28;20061;-66
2022/04/11 05:45:43;;;;;;;14.57;7.07;;;5.70;70.60;;;;;;5136455;27;20046;-67
2022/04/11 05:48:09;;;;;;;12.60;7.32;;;5.70;70.70;;;;;;5135267;28;20032;-66
2022/04/11 05:50:35;;;;;;;12.27;7.53;;;5.70;70.70;;;;;;5136302;28;20023;-67
2022/04/11 05:53:01;;;;;;;15.23;7.20;;;5.70;71.00;;;;;;5136315;28;20019;-66
2022/04/11 05:55:30;;;;;;;10.77;6.53;;;5.80;71.10;;;;;;5135276;28;20062;-66
2022/04/11 05:57:57;;;;;;;14.30;7.03;;;5.90;70.90;;;;;;5135626;28;20030;-66
2022/04/11 06:00:22;;;;;;;12.35;7.97;;;5.90;70.90;;;;;;5135949;27;20028;-67
2022/04/11 06:02:48;;;;;;;16.10;8.27;;;6.00;70.60;;;;;;5136230;28;20080;-66
2022/04/11 06:05:14;;;;;;;13.05;8.18;;;6.00;70.40;;;;;;5136094;28;20027;-66
2022/04/11 06:07:41;;;;;;;14.82;9.20;;;6.10;70.30;;;;;;5135932;28;20028;-66
2022/04/11 06:10:08;;;;;;;14.57;8.57;;;6.20;70.10;;;;;;5135977;27;20031;-66
2022/04/11 06:12:34;;;;;;;13.73;8.57;;;6.20;70.20;;;;;;5135908;28;20024;-66
2022/04/11 06:14:59;;;;;;;12.52;8.15;;;6.30;70.10;;;;;;5135874;28;20132;-66
2022/04/11 06:17:25;;;;;;;15.10;8.40;;;6.40;70.00;;;;;;5135824;28;20042;-66
2022/04/11 06:19:55;;;;;;;14.52;8.38;;;6.50;69.90;;;;;;5134863;28;20041;-66
2022/04/11 06:22:22;;;;;;;15.05;9.25;;;6.50;69.40;;;;;;5135853;28;20058;-66
2022/04/11 06:24:49;;;;;;;12.95;8.65;;;6.50;68.90;;;;;;5135690;28;20122;-66
2022/04/11 06:27:16;;;;;;;13.90;9.13;;;6.50;68.90;;;;;;5135801;27;20031;-66
2022/04/11 06:29:42;;;;;;;13.48;9.07;;;6.50;69.20;;;;;;5135403;28;20024;-66
2022/04/11 06:32:08;;;;;;;13.25;8.80;;;6.50;69.40;;;;;;5134449;28;20019;-65
2022/04/11 06:34:35;;;;;;;17.65;8.80;;;6.60;69.50;;;;;;5135628;28;20039;-66
2022/04/11 06:37:01;;;;;;;12.90;8.20;;;6.60;69.10;;;;;;5135466;28;20016;-66
2022/04/11 06:39:27;;;;;;;13.50;8.63;;;6.70;69.50;;;;;;5135207;28;20110;-66
2022/04/11 06:41:53;;;;;;;15.48;9.00;;;6.70;69.40;;;;;;5135335;28;20035;-66
2022/04/11 06:44:19;;;;;;;12.35;8.25;;;6.70;70.00;;;;;;5135298;28;20027;-66
2022/04/11 06:46:45;;;;;;;15.45;9.10;;;6.80;69.90;;;;;;5135281;28;20032;-66
2022/04/11 06:49:10;;;;;;;13.43;8.82;;;6.80;69.60;;;;;;5135172;28;20052;-66
2022/04/11 06:51:36;;;;;;;13.10;8.55;;;6.80;69.80;;;;;;5134130;28;20019;-66
2022/04/11 06:54:02;;;;;;;15.73;8.95;;;6.90;70.20;;;;;;5135085;28;20055;-66
2022/04/11 06:56:27;;;;;;;16.17;8.70;;;6.90;69.70;;;;;;5135023;28;20045;-66
2022/04/11 06:58:53;;;;;;;16.10;8.65;;;7.00;70.20;;;;;;5134995;28;20027;-66
2022/04/11 07:01:18;;;;;;;15.70;9.38;;;7.10;70.30;;;;;;5134922;28;20036;-66
2022/04/11 07:03:44;;;;;;;14.30;8.48;;;7.20;70.20;;;;;;5134850;28;20053;-66
2022/04/11 07:06:10;;;;;;;14.40;8.70;;;7.20;69.10;;;;;;5134946;28;20028;-67
2022/04/11 07:08:36;;;;;;;11.20;8.43;;;7.30;69.30;;;;;;5132810;28;20020;-66
2022/04/11 07:11:02;;;;;;;13.30;8.10;;;7.40;69.40;;;;;;5134715;28;20034;-66
2022/04/11 07:13:28;;;;;;;10.73;7.80;;;7.40;69.60;;;;;;5134727;28;20019;-66
2022/04/11 07:15:54;;;;;;;15.43;9.30;;;7.60;69.80;;;;;;5134694;28;20027;-66
2022/04/11 07:18:19;;;;;;;13.93;8.23;;;7.60;69.80;;;;;;5133629;28;20076;-67
2022/04/11 07:20:45;;;;;;;16.60;8.88;;;7.80;69.60;;;;;;5134583;28;20035;-67
2022/04/11 07:23:11;;;;;;;13.50;8.75;;;7.80;69.50;;;;;;5133389;28;20031;-67
2022/04/11 07:25:37;;;;;;;12.07;8.07;;;7.90;69.50;;;;;;5134465;28;20032;-67
2022/04/11 07:28:05;;;;;;;13.30;8.70;;;8.00;69.40;;;;;;5133248;28;20031;-68
2022/04/11 07:30:31;;;;;;;14.95;8.45;;;8.10;68.90;;;;;;5134405;28;20027;-67
2022/04/11 07:32:57;;;;;;;11.10;7.85;;;8.20;69.30;;;;;;5134419;28;20020;-67
2022/04/11 07:35:22;;;;;;;13.00;7.90;;;8.30;68.70;;;;;;5134333;28;20024;-66
2022/04/11 07:37:48;;;;;;;13.95;8.32;;;8.40;68.50;;;;;;5133319;28;20020;-66
2022/04/11 07:40:14;;;;;;;14.75;8.85;;;8.40;67.50;;;;;;5134045;28;20056;-66
2022/04/11 07:42:39;;;;;;;12.43;8.35;;;8.50;67.80;;;;;;5134337;28;20023;-66
2022/04/11 07:45:06;;;;;;;15.13;8.75;;;8.60;68.10;;;;;;5134143;28;20020;-66
2022/04/11 07:47:31;;;;;;;14.52;8.13;;;8.70;68.90;;;;;;5134146;28;20047;-66
2022/04/11 07:49:57;;;;;;;17.98;9.25;;;8.80;69.20;;;;;;5134024;28;20028;-66
2022/04/11 07:52:23;;;;;;;16.17;9.00;;;8.90;69.40;;;;;;5134035;28;20051;-66
2022/04/11 07:54:49;;;;;;;14.85;9.38;;;9.00;69.10;;;;;;5134163;28;20091;-67
2022/04/11 07:57:14;;;;;;;11.98;8.63;;;9.20;69.20;;;;;;5134022;28;20094;-66
2022/04/11 07:59:40;;;;;;;12.60;8.57;;;9.20;67.60;;;;;;5133957;28;20087;-66
2022/04/11 08:02:06;;;;;;;12.88;8.40;;;9.30;67.60;;;;;;5133920;28;20086;-67
2022/04/11 08:04:32;;;;;;;13.30;8.77;;;9.40;68.30;;;;;;5132867;28;20126;-66
2022/04/11 08:06:59;;;;;;;13.45;8.50;;;9.50;67.50;;;;;;5133887;28;20015;-66
2022/04/11 08:09:25;;;;;;;11.40;7.90;;;9.50;67.60;;;;;;5133795;28;20023;-66
2022/04/11 08:11:51;;;;;;;14.13;8.52;;;9.60;67.70;;;;;;5133798;28;20012;-66
2022/04/11 08:14:17;;;;;;;11.45;8.18;;;9.70;66.30;;;;;;5132891;28;20032;-67
2022/04/11 08:16:43;;;;;;;12.30;7.25;;;9.80;66.50;;;;;;5133769;28;20038;-66
2022/04/11 08:19:08;;;;;;;10.85;7.78;;;9.80;65.90;;;;;;5133582;28;20019;-66
2022/04/11 08:21:34;;;;;;;10.18;7.13;;;9.80;65.20;;;;;;5137219;28;20059;-66
2022/04/11 08:23:59;;;;;;;10.95;7.38;;;10.00;65.80;;;;;;5137642;28;20057;-67
2022/04/11 08:26:25;;;;;;;11.57;7.13;;;10.10;65.60;;;;;;5137684;28;20080;-66
2022/04/11 08:28:51;;;;;;;10.13;7.07;;;10.40;66.10;;;;;;5137471;28;20028;-67
2022/04/11 08:31:16;;;;;;;9.18;7.18;;;10.40;63.70;;;;;;5137577;28;20467;-67
2022/04/11 08:33:42;;;;;;;14.80;6.72;;;10.50;62.90;;;;;;5137514;28;20028;-66
2022/04/11 08:36:07;;;;;;;11.02;6.50;;;10.70;65.00;;;;;;5137437;28;20024;-67
2022/04/11 08:38:33;;;;;;;9.38;6.97;;;10.80;62.80;;;;;;5137428;28;20056;-67
2022/04/11 08:41:02;;;;;;;9.57;6.38;;;11.00;62.90;;;;;;5137255;28;20077;-67
2022/04/11 08:43:28;;;;;;;10.50;6.30;;;11.00;61.20;;;;;;5137421;28;20621;-67
2022/04/11 08:45:54;;;;;;;12.40;6.00;;;11.00;61.60;;;;;;5137320;28;20027;-67
2022/04/11 08:48:23;;;;;;;8.65;6.03;;;11.10;61.30;;;;;;5137202;28;20049;-67
2022/04/11 08:50:49;;;;;;;11.48;5.72;;;11.20;58.80;;;;;;5137256;28;20027;-67
2022/04/11 08:53:20;;;;;;;9.73;5.93;;;11.20;60.00;;;;;;5137216;28;20019;-66
2022/04/11 08:55:48;;;;;;;8.90;6.55;;;11.30;62.00;;;;;;5137231;28;20016;-66
2022/04/11 08:58:14;;;;;;;12.55;5.63;;;11.50;61.20;;;;;;5137184;28;20027;-66
2022/04/11 09:00:40;;;;;;;11.20;6.10;;;11.60;58.50;;;;;;5137076;28;20027;-66
2022/04/11 09:03:07;;;;;;;8.38;5.93;;;11.70;60.10;;;;;;5136967;28;20068;-66
2022/04/11 09:05:34;;;;;;;8.27;5.82;;;11.80;59.60;;;;;;5136979;28;20027;-66
2022/04/11 09:08:00;;;;;;;8.73;5.90;;;11.90;59.60;;;;;;5136828;28;20019;-67
2022/04/11 09:10:28;;;;;;;9.73;5.50;;;12.00;59.90;;;;;;5136881;28;20043;-66
2022/04/11 09:12:59;;;;;;;7.95;5.75;;;12.10;59.40;;;;;;5136800;28;20111;-66
2022/04/11 09:15:26;;;;;;;9.90;5.90;;;12.20;58.40;;;;;;5135700;28;20026;-66
2022/04/11 09:17:53;;;;;;;8.20;5.20;;;12.30;57.40;;;;;;5136680;28;20049;-66
2022/04/11 09:20:27;;;;;;;9.32;5.45;;;12.30;54.80;;;;;;5136672;28;20030;-66
2022/04/11 09:22:53;;;;;;;10.88;5.60;;;12.30;55.20;;;;;;5136772;28;20372;-66
2022/04/11 09:25:24;;;;;;;9.63;6.20;;;12.40;55.70;;;;;;5135453;28;20084;-66
2022/04/11 09:28:03;;;;;;;8.68;5.50;;;12.50;57.20;;;;;;5136393;28;20012;-66
2022/04/11 09:30:32;;;;;;;7.05;5.50;;;12.70;54.40;;;;;;5136590;28;20050;-66
2022/04/11 09:32:58;;;;;;;7.55;5.45;;;12.80;52.80;;;;;;5135266;28;20083;-67
2022/04/11 09:35:35;;;;;;;9.77;5.20;;;12.80;54.70;;;;;;5136358;28;20031;-66
2022/04/11 09:38:20;;;;;;;6.60;5.00;;;12.90;54.30;;;;;;5135380;28;20023;-67
2022/04/11 09:40:51;;;;;;;7.22;4.75;;;13.00;54.50;;;;;;5136144;28;20059;-66
2022/04/11 09:43:37;;;;;;;9.77;5.68;;;13.00;53.00;;;;;;5136391;28;20023;-67
2022/04/11 09:46:03;;;;;;;7.35;5.22;;;13.20;55.40;;;;;;5135986;28;20042;-68
2022/04/11 09:48:35;;;;;;;7.30;4.93;;;13.10;52.00;;;;;;5136118;28;20052;-68
2022/04/11 09:51:07;;;;;;;8.90;5.80;;;13.10;50.80;;;;;;5136467;28;20181;-69
2022/04/11 09:53:34;;;;;;;10.10;4.68;;;13.20;52.70;;;;;;5136433;28;20024;-69
2022/04/11 09:56:06;;;;;;;7.63;5.03;;;13.30;55.40;;;;;;5136299;28;20046;-67
2022/04/11 09:58:37;;;;;;;8.63;4.90;;;13.50;53.90;;;;;;5136255;28;20027;-67
2022/04/11 10:01:04;;;;;;;8.20;4.63;;;13.60;51.80;;;;;;5136181;28;20023;-68
2022/04/11 10:03:31;;;;;;;10.45;5.18;;;13.50;51.00;;;;;;5135950;28;20083;-68
2022/04/11 10:05:58;;;;;;;5.28;4.13;;;13.60;53.20;;;;;;5135988;28;20038;-68
2022/04/11 10:08:25;;;;;;;10.50;4.60;;;13.70;50.60;;;;;;5135769;28;20039;-68
2022/04/11 10:10:52;;;;;;;6.82;4.15;;;13.70;49.30;;;;;;5134839;28;20114;-69
2022/04/11 10:13:17;;;;;;;6.25;4.38;;;13.80;50.00;;;;;;5135769;28;20024;-69
2022/04/11 10:15:46;;;;;;;6.63;4.13;;;13.80;49.10;;;;;;5135672;28;20114;-68
2022/04/11 10:18:15;;;;;;;9.68;5.13;;;13.80;47.60;;;;;;5134544;28;20038;-68
2022/04/11 10:20:46;;;;;;;6.47;4.13;;;13.70;47.10;;;;;;5135664;28;20058;-68
2022/04/11 10:23:27;;;;;;;7.57;4.07;;;13.80;48.40;;;;;;5135789;28;20091;-68
2022/04/11 10:25:57;;;;;;;7.10;4.50;;;13.80;47.20;;;;;;5134446;28;20038;-68
2022/04/11 10:28:24;;;;;;;5.93;3.60;;;13.70;47.20;;;;;;5135327;28;20083;-68
2022/04/11 10:31:10;;;;;;;6.28;3.97;;;13.80;48.00;;;;;;5134528;28;20107;-68
2022/04/11 10:33:39;;;;;;;6.75;3.65;;;14.00;46.30;;;;;;5135358;28;20380;-68
2022/04/11 10:36:28;;;;;;;6.22;3.80;;;13.90;43.90;;;;;;5135264;28;20024;-68
2022/04/11 10:39:15;;;;;;;6.78;3.75;;;13.90;46.90;;;;;;5135056;28;20024;-70
2022/04/11 10:41:56;;;;;;;6.75;3.67;;;14.00;46.40;;;;;;5135140;28;20045;-68
2022/04/11 10:44:54;;;;;;;6.28;3.88;;;14.10;46.10;;;;;;5134989;28;20438;-68
2022/04/11 10:47:30;;;;;;;6.70;3.78;;;14.20;45.60;;;;;;5129974;28;20042;-68
2022/04/11 10:50:04;;;;;;;8.68;3.90;;;14.20;42.10;;;;;;5134965;28;20031;-68
2022/04/11 10:52:33;;;;;;;7.22;4.45;;;14.10;42.40;;;;;;5135058;28;20020;-68
2022/04/11 10:55:15;;;;;;;5.75;3.75;;;14.20;44.60;;;;;;5134906;28;20030;-68
2022/04/11 10:57:45;;;;;;;6.03;3.80;;;14.20;45.50;;;;;;5135100;28;20028;-68
2022/04/11 11:00:32;;;;;;;6.05;3.63;;;14.40;44.80;;;;;;5134854;28;20027;-69
2022/04/11 11:03:01;;;;;;;4.80;3.53;;;14.20;43.90;;;;;;5134675;28;20020;-68
2022/04/11 11:05:38;;;;;;;6.22;2.92;;;14.20;42.20;;;;;;5134603;28;20107;-68
2022/04/11 11:08:10;;;;;;;4.88;3.28;;;14.30;41.70;;;;;;5134665;28;20036;-68
2022/04/11 11:10:54;;;;;;;5.37;2.80;;;14.40;41.10;;;;;;5134605;28;20023;-68
2022/04/11 11:13:36;;;;;;;6.20;3.42;;;14.40;43.80;;;;;;5133507;28;20261;-68
2022/04/11 11:16:21;;;;;;;6.57;3.35;;;14.60;43.30;;;;;;5134689;28;20022;-68
2022/04/11 11:18:53;;;;;;;6.78;3.80;;;14.60;40.50;;;;;;5134347;28;20053;-68
2022/04/11 11:21:37;;;;;;;5.47;3.40;;;14.60;39.70;;;;;;5134603;28;20399;-68
2022/04/11 11:26:46;;;;;;;6.53;3.83;;;14.40;40.00;;;;;;5134474;28;20057;-69
2022/04/11 11:29:25;;;;;;;6.85;3.90;;;14.40;43.80;;;;;;5134174;28;20035;-68
2022/04/11 11:31:53;;;;;;;6.90;4.03;;;14.40;41.00;;;;;;5134302;28;20026;-68
2022/04/11 11:34:21;;;;;;;6.88;3.90;;;14.40;42.80;;;;;;5134310;28;20024;-68
2022/04/11 11:36:47;;;;;;;5.47;3.78;;;14.60;42.00;;;;;;5134277;28;20035;-68
2022/04/11 11:39:20;;;;;;;6.50;3.67;;;14.60;42.00;;;;;;5133951;28;20046;-68
2022/04/11 11:41:54;;;;;;;7.22;4.00;;;14.70;41.50;;;;;;5134107;28;20032;-68
2022/04/11 11:44:21;;;;;;;6.93;4.10;;;14.80;42.30;;;;;;5134105;28;20043;-68
2022/04/11 11:46:56;;;;;;;5.78;3.85;;;15.10;43.60;;;;;;5134000;28;20035;-68
2022/04/11 11:49:24;;;;;;;6.50;3.70;;;15.10;40.80;;;;;;5133916;28;20091;-68
2022/04/11 11:51:51;;;;;;;5.03;3.85;;;15.10;39.10;;;;;;5133886;28;20031;-68
2022/04/11 11:54:41;;;;;;;5.18;3.65;;;15.10;39.00;;;;;;5133522;28;20372;-68
2022/04/11 11:57:15;;;;;;;6.10;3.60;;;15.10;38.40;;;;;;5126298;28;20057;-68
2022/04/11 12:00:01;;;;;;;6.20;3.47;;;15.00;40.20;;;;;;5133936;28;20031;-68
2022/04/11 12:05:41;;;;;;;6.20;3.80;;;15.00;40.00;;;;;;5133935;28;20038;-68
2022/04/11 12:08:13;;;;;;;6.28;3.67;;;15.00;40.40;;;;;;5133839;28;20394;-68
2022/04/11 12:10:49;;;;;;;5.45;4.22;;;15.00;38.60;;;;;;5133835;28;20075;-68
2022/04/11 12:13:22;;;;;;;8.07;4.30;;;15.10;40.90;;;;;;5133698;28;20027;-68
2022/04/11 12:15:48;;;;;;;7.53;5.03;;;15.10;40.00;;;;;;5133641;28;20123;-68
2022/04/11 12:18:15;;;;;;;6.90;4.18;;;15.20;41.10;;;;;;5133565;28;20087;-68
2022/04/11 12:20:42;;;;;;;7.13;4.30;;;15.30;40.90;;;;;;5133737;28;20027;-68
2022/04/11 12:23:10;;;;;;;7.05;3.47;;;15.30;40.10;;;;;;5133773;28;20020;-68
2022/04/11 12:25:41;;;;;;;7.80;3.80;;;15.30;38.30;;;;;;5133723;28;20020;-68
2022/04/11 12:28:19;;;;;;;6.78;4.40;;;15.30;38.00;;;;;;5133742;28;20083;-68
2022/04/11 12:31:01;;;;;;;5.88;3.88;;;15.20;39.50;;;;;;5132732;28;20023;-68
2022/04/11 12:33:37;;;;;;;6.75;4.18;;;15.20;37.80;;;;;;5133798;28;20027;-68
2022/04/11 12:36:20;;;;;;;6.78;4.18;;;15.20;38.20;;;;;;5133640;28;20020;-68
2022/04/11 12:38:46;;;;;;;6.85;4.15;;;15.20;38.60;;;;;;5133603;28;20031;-68
2022/04/11 12:41:44;;;;;;;7.22;3.83;;;15.20;39.10;;;;;;5133365;28;20107;-68
2022/04/11 12:44:13;;;;;;;6.20;3.53;;;15.40;38.20;;;;;;5099656;28;20028;-68
2022/04/11 12:46:43;;;;;;;10.95;4.55;;;15.30;40.10;;;;;;5133499;28;20035;-68
2022/04/11 12:49:14;;;;;;;6.00;3.53;;;15.20;38.70;;;;;;5133435;28;20024;-68
2022/04/11 12:51:41;;;;;;;5.82;3.65;;;15.20;38.80;;;;;;5133533;28;20031;-68
2022/04/11 12:54:16;;;;;;;6.63;4.22;;;15.30;36.30;;;;;;5133481;28;20020;-68
2022/04/11 12:56:47;;;;;;;7.10;4.22;;;15.40;37.90;;;;;;5133495;28;20039;-68
2022/04/11 12:59:37;;;;;;;6.85;4.20;;;15.50;37.00;;;;;;5133457;28;20032;-68